Saturday, January 21, 2017

  Over 48,494,314 pages visited!

GMT:
05:19
PACIFIC:
10:19:46 PM
MOUNTAIN:
11:19:46 PM

CENTRAL:
12:19:46 AM

EASTERN:
1:19:46 AM
ATLANTIC:
2:19:46 AM
NEWFOUNDLAND:
2:49:46 AM
 

 


Watches/Warnings
Current Conditions
Radar/Satellite
Lightning Images


Current Weather Conditions For TORONTO PEARSON,ON

 


No Report
 

Temperature: R05
Dew Point: 280�C / 536�F
Humidity: 1138684 %
Pressure: 1008.6 mbs (29.78 inches)
Visibility: 0 kms (1/8 SM)
Wind Direction: SW (230�)
Wind Speed: 7.4 Km/h (4.6 MPH)
Max Wind Gust: No Gusts
Humidex: N/A
WindChill: N/A
    

Observation Information

Date/Time: Sunday, January 22, 2017 @ 06:00Z
Local Time:
Metar Coded: CYYZ 210600Z 23004KT 1/8SM R06L/1400FT/N R05/2800V5000FT/U -DZ FG VV001 03/03 A2976 RMK FG8 SLP086

 

 

                   1997-2017 The Ontario Weather Page